sensor_id;sensor_type;location;lat;lon;timestamp;temperature;humidity
30206;DHT22;17010;51.306;3.150;2023-04-29T00:01:14;9.60;99.90
30206;DHT22;17010;51.306;3.150;2023-04-29T00:03:40;9.60;99.90
30206;DHT22;17010;51.306;3.150;2023-04-29T00:06:07;9.60;99.90
30206;DHT22;17010;51.306;3.150;2023-04-29T00:08:34;9.60;99.90
30206;DHT22;17010;51.306;3.150;2023-04-29T00:11:01;9.70;99.90
30206;DHT22;17010;51.306;3.150;2023-04-29T00:13:27;9.70;99.90
30206;DHT22;17010;51.306;3.150;2023-04-29T00:15:55;9.70;99.90
30206;DHT22;17010;51.306;3.150;2023-04-29T00:18:21;9.60;99.90
30206;DHT22;17010;51.306;3.150;2023-04-29T00:20:47;9.60;99.90
30206;DHT22;17010;51.306;3.150;2023-04-29T00:23:14;9.60;99.90
30206;DHT22;17010;51.306;3.150;2023-04-29T00:25:41;9.60;99.90
30206;DHT22;17010;51.306;3.150;2023-04-29T00:28:07;9.60;99.90
30206;DHT22;17010;51.306;3.150;2023-04-29T00:30:33;9.60;99.90
30206;DHT22;17010;51.306;3.150;2023-04-29T00:33:00;9.60;99.90
30206;DHT22;17010;51.306;3.150;2023-04-29T00:35:26;9.60;99.90
30206;DHT22;17010;51.306;3.150;2023-04-29T00:37:52;9.60;99.90
30206;DHT22;17010;51.306;3.150;2023-04-29T00:40:18;9.60;99.90
30206;DHT22;17010;51.306;3.150;2023-04-29T00:42:45;9.60;99.90
30206;DHT22;17010;51.306;3.150;2023-04-29T00:45:11;9.60;99.90
30206;DHT22;17010;51.306;3.150;2023-04-29T00:47:37;9.60;99.90
30206;DHT22;17010;51.306;3.150;2023-04-29T00:50:05;9.60;99.90
30206;DHT22;17010;51.306;3.150;2023-04-29T00:52:31;9.50;99.90
30206;DHT22;17010;51.306;3.150;2023-04-29T00:54:59;9.60;99.90
30206;DHT22;17010;51.306;3.150;2023-04-29T00:57:25;9.60;99.90
30206;DHT22;17010;51.306;3.150;2023-04-29T00:59:56;9.60;99.90
30206;DHT22;17010;51.306;3.150;2023-04-29T01:02:23;9.60;99.90
30206;DHT22;17010;51.306;3.150;2023-04-29T01:04:50;9.50;99.90
30206;DHT22;17010;51.306;3.150;2023-04-29T01:10:08;9.50;99.90
30206;DHT22;17010;51.306;3.150;2023-04-29T01:18:06;9.40;99.90
30206;DHT22;17010;51.306;3.150;2023-04-29T01:20:33;9.40;99.90
30206;DHT22;17010;51.306;3.150;2023-04-29T01:23:01;9.50;99.90
30206;DHT22;17010;51.306;3.150;2023-04-29T01:25:28;9.50;99.90
30206;DHT22;17010;51.306;3.150;2023-04-29T01:28:19;9.60;99.90
30206;DHT22;17010;51.306;3.150;2023-04-29T01:30:59;9.60;99.90
30206;DHT22;17010;51.306;3.150;2023-04-29T01:41:44;9.60;99.90
30206;DHT22;17010;51.306;3.150;2023-04-29T01:44:22;9.70;99.90
30206;DHT22;17010;51.306;3.150;2023-04-29T01:46:52;9.60;99.90
30206;DHT22;17010;51.306;3.150;2023-04-29T01:49:24;9.60;99.90
30206;DHT22;17010;51.306;3.150;2023-04-29T01:51:52;9.50;99.90
30206;DHT22;17010;51.306;3.150;2023-04-29T01:54:19;9.50;99.90
30206;DHT22;17010;51.306;3.150;2023-04-29T01:56:46;9.50;99.90
30206;DHT22;17010;51.306;3.150;2023-04-29T01:59:12;9.50;99.90
30206;DHT22;17010;51.306;3.150;2023-04-29T02:01:39;9.50;99.90
30206;DHT22;17010;51.306;3.150;2023-04-29T02:04:05;9.50;99.90
30206;DHT22;17010;51.306;3.150;2023-04-29T02:06:31;9.50;99.90
30206;DHT22;17010;51.306;3.150;2023-04-29T02:08:59;9.40;99.90
30206;DHT22;17010;51.306;3.150;2023-04-29T02:11:25;9.50;99.90
30206;DHT22;17010;51.306;3.150;2023-04-29T02:13:53;9.50;99.90
30206;DHT22;17010;51.306;3.150;2023-04-29T02:16:20;9.50;99.90
30206;DHT22;17010;51.306;3.150;2023-04-29T02:18:46;9.40;99.90
30206;DHT22;17010;51.306;3.150;2023-04-29T02:21:13;9.40;99.90
30206;DHT22;17010;51.306;3.150;2023-04-29T02:23:39;9.40;99.90
30206;DHT22;17010;51.306;3.150;2023-04-29T02:26:05;9.40;99.90
30206;DHT22;17010;51.306;3.150;2023-04-29T02:28:32;9.30;99.90
30206;DHT22;17010;51.306;3.150;2023-04-29T02:30:59;9.30;99.90
30206;DHT22;17010;51.306;3.150;2023-04-29T02:33:26;9.30;99.90
30206;DHT22;17010;51.306;3.150;2023-04-29T02:35:54;9.20;99.90
30206;DHT22;17010;51.306;3.150;2023-04-29T02:38:20;9.10;99.90
30206;DHT22;17010;51.306;3.150;2023-04-29T02:40:47;9.20;99.90
30206;DHT22;17010;51.306;3.150;2023-04-29T02:43:14;9.20;99.90
30206;DHT22;17010;51.306;3.150;2023-04-29T02:45:40;9.20;99.90
30206;DHT22;17010;51.306;3.150;2023-04-29T02:48:08;9.20;99.90
30206;DHT22;17010;51.306;3.150;2023-04-29T02:50:34;9.10;99.90
30206;DHT22;17010;51.306;3.150;2023-04-29T02:53:08;9.10;99.90
30206;DHT22;17010;51.306;3.150;2023-04-29T02:55:34;9.10;99.90
30206;DHT22;17010;51.306;3.150;2023-04-29T02:58:00;9.00;99.90
30206;DHT22;17010;51.306;3.150;2023-04-29T03:00:27;9.00;99.90
30206;DHT22;17010;51.306;3.150;2023-04-29T03:02:53;9.00;99.90
30206;DHT22;17010;51.306;3.150;2023-04-29T03:05:19;8.90;99.90
30206;DHT22;17010;51.306;3.150;2023-04-29T03:07:45;9.00;99.90
30206;DHT22;17010;51.306;3.150;2023-04-29T03:10:12;8.90;99.90
30206;DHT22;17010;51.306;3.150;2023-04-29T03:12:38;8.90;99.90
30206;DHT22;17010;51.306;3.150;2023-04-29T03:15:06;8.90;99.90
30206;DHT22;17010;51.306;3.150;2023-04-29T03:17:32;8.80;99.90
30206;DHT22;17010;51.306;3.150;2023-04-29T03:19:59;8.90;99.90
30206;DHT22;17010;51.306;3.150;2023-04-29T03:22:25;8.90;99.90
30206;DHT22;17010;51.306;3.150;2023-04-29T03:24:51;9.00;99.90
30206;DHT22;17010;51.306;3.150;2023-04-29T03:27:18;9.00;99.90
30206;DHT22;17010;51.306;3.150;2023-04-29T03:29:45;9.00;99.90
30206;DHT22;17010;51.306;3.150;2023-04-29T03:32:11;8.90;99.90
30206;DHT22;17010;51.306;3.150;2023-04-29T03:34:39;8.90;99.90
30206;DHT22;17010;51.306;3.150;2023-04-29T03:37:06;8.90;99.90
30206;DHT22;17010;51.306;3.150;2023-04-29T03:39:32;8.90;99.90
30206;DHT22;17010;51.306;3.150;2023-04-29T03:41:58;9.00;99.90
30206;DHT22;17010;51.306;3.150;2023-04-29T03:44:25;8.90;99.90
30206;DHT22;17010;51.306;3.150;2023-04-29T03:46:51;8.90;99.90
30206;DHT22;17010;51.306;3.150;2023-04-29T03:49:18;8.90;99.90
30206;DHT22;17010;51.306;3.150;2023-04-29T03:51:45;8.90;99.90
30206;DHT22;17010;51.306;3.150;2023-04-29T03:54:11;8.90;99.90
30206;DHT22;17010;51.306;3.150;2023-04-29T03:56:39;8.80;99.90
30206;DHT22;17010;51.306;3.150;2023-04-29T03:59:07;8.80;99.90
30206;DHT22;17010;51.306;3.150;2023-04-29T04:01:33;8.80;99.90
30206;DHT22;17010;51.306;3.150;2023-04-29T04:04:01;8.70;99.90
30206;DHT22;17010;51.306;3.150;2023-04-29T04:06:28;8.70;99.90
30206;DHT22;17010;51.306;3.150;2023-04-29T04:08:54;8.80;99.90
30206;DHT22;17010;51.306;3.150;2023-04-29T04:11:22;8.70;99.90
30206;DHT22;17010;51.306;3.150;2023-04-29T04:13:49;8.70;99.90
30206;DHT22;17010;51.306;3.150;2023-04-29T04:16:15;8.70;99.90
30206;DHT22;17010;51.306;3.150;2023-04-29T04:18:41;8.70;99.90
30206;DHT22;17010;51.306;3.150;2023-04-29T04:21:08;8.70;99.90
30206;DHT22;17010;51.306;3.150;2023-04-29T04:23:35;8.70;99.90
30206;DHT22;17010;51.306;3.150;2023-04-29T04:26:02;8.70;99.90
30206;DHT22;17010;51.306;3.150;2023-04-29T04:28:28;8.70;99.90
30206;DHT22;17010;51.306;3.150;2023-04-29T04:30:54;8.70;99.90
30206;DHT22;17010;51.306;3.150;2023-04-29T04:33:21;8.80;99.90
30206;DHT22;17010;51.306;3.150;2023-04-29T04:35:48;8.80;99.90
30206;DHT22;17010;51.306;3.150;2023-04-29T04:38:14;8.90;99.90
30206;DHT22;17010;51.306;3.150;2023-04-29T04:40:41;8.90;99.90
30206;DHT22;17010;51.306;3.150;2023-04-29T04:43:10;8.90;99.90
30206;DHT22;17010;51.306;3.150;2023-04-29T04:45:36;9.00;99.90
30206;DHT22;17010;51.306;3.150;2023-04-29T04:48:03;8.90;99.90
30206;DHT22;17010;51.306;3.150;2023-04-29T04:50:29;9.00;99.90
30206;DHT22;17010;51.306;3.150;2023-04-29T04:52:55;9.00;99.90
30206;DHT22;17010;51.306;3.150;2023-04-29T04:55:22;9.00;99.90
30206;DHT22;17010;51.306;3.150;2023-04-29T04:57:49;9.00;99.90
30206;DHT22;17010;51.306;3.150;2023-04-29T05:00:15;9.00;99.90
30206;DHT22;17010;51.306;3.150;2023-04-29T05:02:42;9.00;99.90
30206;DHT22;17010;51.306;3.150;2023-04-29T05:05:08;9.00;99.90
30206;DHT22;17010;51.306;3.150;2023-04-29T05:07:34;9.00;99.90
30206;DHT22;17010;51.306;3.150;2023-04-29T05:10:01;9.10;99.90
30206;DHT22;17010;51.306;3.150;2023-04-29T05:12:28;9.20;99.90
30206;DHT22;17010;51.306;3.150;2023-04-29T05:14:57;9.20;99.90
30206;DHT22;17010;51.306;3.150;2023-04-29T05:17:23;9.20;99.90
30206;DHT22;17010;51.306;3.150;2023-04-29T05:19:49;9.10;99.90
30206;DHT22;17010;51.306;3.150;2023-04-29T05:22:16;9.10;99.90
30206;DHT22;17010;51.306;3.150;2023-04-29T05:24:42;9.10;99.90
30206;DHT22;17010;51.306;3.150;2023-04-29T05:27:08;9.20;99.90
30206;DHT22;17010;51.306;3.150;2023-04-29T05:29:34;9.20;99.90
30206;DHT22;17010;51.306;3.150;2023-04-29T05:32:01;9.30;99.90
30206;DHT22;17010;51.306;3.150;2023-04-29T05:34:27;9.40;99.90
30206;DHT22;17010;51.306;3.150;2023-04-29T05:36:54;9.40;99.90
30206;DHT22;17010;51.306;3.150;2023-04-29T05:39:21;9.40;99.90
30206;DHT22;17010;51.306;3.150;2023-04-29T05:41:48;9.40;99.90
30206;DHT22;17010;51.306;3.150;2023-04-29T05:44:14;9.50;99.90
30206;DHT22;17010;51.306;3.150;2023-04-29T05:46:40;9.50;99.90
30206;DHT22;17010;51.306;3.150;2023-04-29T05:49:06;9.50;99.90
30206;DHT22;17010;51.306;3.150;2023-04-29T05:51:33;9.50;99.90
30206;DHT22;17010;51.306;3.150;2023-04-29T05:54:00;9.40;99.90
30206;DHT22;17010;51.306;3.150;2023-04-29T05:56:26;9.40;99.90
30206;DHT22;17010;51.306;3.150;2023-04-29T05:58:52;9.40;99.90
30206;DHT22;17010;51.306;3.150;2023-04-29T06:01:19;9.40;99.90
30206;DHT22;17010;51.306;3.150;2023-04-29T06:03:45;9.40;99.90
30206;DHT22;17010;51.306;3.150;2023-04-29T06:06:11;9.40;99.90
30206;DHT22;17010;51.306;3.150;2023-04-29T06:08:37;9.40;99.90
30206;DHT22;17010;51.306;3.150;2023-04-29T06:11:03;9.30;99.90
30206;DHT22;17010;51.306;3.150;2023-04-29T06:13:31;9.40;99.90
30206;DHT22;17010;51.306;3.150;2023-04-29T06:15:58;9.30;99.90
30206;DHT22;17010;51.306;3.150;2023-04-29T06:18:24;9.40;99.90
30206;DHT22;17010;51.306;3.150;2023-04-29T06:20:50;9.40;99.90
30206;DHT22;17010;51.306;3.150;2023-04-29T06:23:16;9.40;99.90
30206;DHT22;17010;51.306;3.150;2023-04-29T06:25:43;9.50;99.90
30206;DHT22;17010;51.306;3.150;2023-04-29T06:28:09;9.40;99.90
30206;DHT22;17010;51.306;3.150;2023-04-29T06:30:35;9.50;99.90
30206;DHT22;17010;51.306;3.150;2023-04-29T06:33:01;9.50;99.90
30206;DHT22;17010;51.306;3.150;2023-04-29T06:35:28;9.60;99.90
30206;DHT22;17010;51.306;3.150;2023-04-29T06:37:54;9.50;99.90
30206;DHT22;17010;51.306;3.150;2023-04-29T06:40:21;9.60;99.90
30206;DHT22;17010;51.306;3.150;2023-04-29T06:42:47;9.70;99.90
30206;DHT22;17010;51.306;3.150;2023-04-29T06:45:14;9.70;99.90
30206;DHT22;17010;51.306;3.150;2023-04-29T06:47:40;9.70;99.90
30206;DHT22;17010;51.306;3.150;2023-04-29T06:50:06;9.70;99.90
30206;DHT22;17010;51.306;3.150;2023-04-29T06:52:32;9.60;99.90
30206;DHT22;17010;51.306;3.150;2023-04-29T06:54:59;9.60;99.90
30206;DHT22;17010;51.306;3.150;2023-04-29T06:57:25;9.70;99.90
30206;DHT22;17010;51.306;3.150;2023-04-29T06:59:52;9.80;99.90
30206;DHT22;17010;51.306;3.150;2023-04-29T07:02:19;9.90;99.90
30206;DHT22;17010;51.306;3.150;2023-04-29T07:04:45;10.00;99.90
30206;DHT22;17010;51.306;3.150;2023-04-29T07:07:11;10.00;99.90
30206;DHT22;17010;51.306;3.150;2023-04-29T07:09:39;10.00;99.90
30206;DHT22;17010;51.306;3.150;2023-04-29T07:12:05;10.00;99.90
30206;DHT22;17010;51.306;3.150;2023-04-29T07:14:31;10.10;99.90
30206;DHT22;17010;51.306;3.150;2023-04-29T07:16:58;10.20;99.90
30206;DHT22;17010;51.306;3.150;2023-04-29T07:19:24;10.20;99.90
30206;DHT22;17010;51.306;3.150;2023-04-29T07:21:50;10.20;99.90
30206;DHT22;17010;51.306;3.150;2023-04-29T07:24:18;10.20;99.90
30206;DHT22;17010;51.306;3.150;2023-04-29T07:26:44;10.20;99.90
30206;DHT22;17010;51.306;3.150;2023-04-29T07:29:11;10.10;99.90
30206;DHT22;17010;51.306;3.150;2023-04-29T07:31:38;10.10;99.90
30206;DHT22;17010;51.306;3.150;2023-04-29T07:34:05;10.20;99.90
30206;DHT22;17010;51.306;3.150;2023-04-29T07:36:31;10.20;99.90
30206;DHT22;17010;51.306;3.150;2023-04-29T07:38:58;10.20;99.90
30206;DHT22;17010;51.306;3.150;2023-04-29T07:41:25;10.30;99.90
30206;DHT22;17010;51.306;3.150;2023-04-29T07:43:51;10.40;99.90
30206;DHT22;17010;51.306;3.150;2023-04-29T07:46:17;10.50;99.90
30206;DHT22;17010;51.306;3.150;2023-04-29T07:48:45;10.50;99.90
30206;DHT22;17010;51.306;3.150;2023-04-29T07:51:14;10.60;99.90
30206;DHT22;17010;51.306;3.150;2023-04-29T07:53:40;10.70;99.90
30206;DHT22;17010;51.306;3.150;2023-04-29T07:56:07;10.60;99.90
30206;DHT22;17010;51.306;3.150;2023-04-29T07:58:33;10.70;99.90
30206;DHT22;17010;51.306;3.150;2023-04-29T08:01:07;10.70;99.90
30206;DHT22;17010;51.306;3.150;2023-04-29T08:03:34;10.70;99.90
30206;DHT22;17010;51.306;3.150;2023-04-29T08:06:01;10.70;99.90
30206;DHT22;17010;51.306;3.150;2023-04-29T08:08:29;10.70;99.90
30206;DHT22;17010;51.306;3.150;2023-04-29T08:10:56;10.80;99.90
30206;DHT22;17010;51.306;3.150;2023-04-29T08:13:23;10.80;99.90
30206;DHT22;17010;51.306;3.150;2023-04-29T08:15:50;11.00;99.90
30206;DHT22;17010;51.306;3.150;2023-04-29T08:18:17;11.10;99.90
30206;DHT22;17010;51.306;3.150;2023-04-29T08:20:43;11.20;99.90
30206;DHT22;17010;51.306;3.150;2023-04-29T08:23:10;11.30;99.90
30206;DHT22;17010;51.306;3.150;2023-04-29T08:25:39;11.40;99.90
30206;DHT22;17010;51.306;3.150;2023-04-29T08:28:05;11.50;99.90
30206;DHT22;17010;51.306;3.150;2023-04-29T08:30:32;11.60;99.90
30206;DHT22;17010;51.306;3.150;2023-04-29T08:33:01;11.90;99.90
30206;DHT22;17010;51.306;3.150;2023-04-29T08:35:28;12.20;99.90
30206;DHT22;17010;51.306;3.150;2023-04-29T08:37:54;12.30;99.90
30206;DHT22;17010;51.306;3.150;2023-04-29T08:40:20;12.50;99.90
30206;DHT22;17010;51.306;3.150;2023-04-29T08:42:47;12.50;99.90
30206;DHT22;17010;51.306;3.150;2023-04-29T08:45:14;12.50;99.90
30206;DHT22;17010;51.306;3.150;2023-04-29T08:47:44;12.60;99.90
30206;DHT22;17010;51.306;3.150;2023-04-29T08:50:11;12.50;99.90
30206;DHT22;17010;51.306;3.150;2023-04-29T08:52:38;12.40;99.90
30206;DHT22;17010;51.306;3.150;2023-04-29T08:55:06;12.30;99.90
30206;DHT22;17010;51.306;3.150;2023-04-29T08:57:35;12.10;99.90
30206;DHT22;17010;51.306;3.150;2023-04-29T09:00:10;12.00;99.90
30206;DHT22;17010;51.306;3.150;2023-04-29T09:02:44;12.00;99.90
30206;DHT22;17010;51.306;3.150;2023-04-29T09:05:12;11.90;99.90
30206;DHT22;17010;51.306;3.150;2023-04-29T09:07:40;11.90;99.90
30206;DHT22;17010;51.306;3.150;2023-04-29T09:10:08;12.20;99.90
30206;DHT22;17010;51.306;3.150;2023-04-29T09:12:36;12.60;99.90
30206;DHT22;17010;51.306;3.150;2023-04-29T09:15:04;13.20;99.90
30206;DHT22;17010;51.306;3.150;2023-04-29T09:17:45;14.00;99.90
30206;DHT22;17010;51.306;3.150;2023-04-29T09:22:47;14.80;99.90
30206;DHT22;17010;51.306;3.150;2023-04-29T09:25:14;14.60;99.90
30206;DHT22;17010;51.306;3.150;2023-04-29T09:27:40;14.40;99.90
30206;DHT22;17010;51.306;3.150;2023-04-29T09:30:07;14.50;99.90
30206;DHT22;17010;51.306;3.150;2023-04-29T09:32:37;14.40;99.90
30206;DHT22;17010;51.306;3.150;2023-04-29T09:35:22;14.40;99.90
30206;DHT22;17010;51.306;3.150;2023-04-29T09:37:53;14.40;99.90
30206;DHT22;17010;51.306;3.150;2023-04-29T09:40:33;14.10;99.90
30206;DHT22;17010;51.306;3.150;2023-04-29T09:43:00;14.20;99.90
30206;DHT22;17010;51.306;3.150;2023-04-29T09:45:36;14.10;99.90
30206;DHT22;17010;51.306;3.150;2023-04-29T09:48:06;14.20;99.90
30206;DHT22;17010;51.306;3.150;2023-04-29T09:50:34;14.50;99.90
30206;DHT22;17010;51.306;3.150;2023-04-29T09:53:05;14.70;99.90
30206;DHT22;17010;51.306;3.150;2023-04-29T09:55:58;14.40;99.90
30206;DHT22;17010;51.306;3.150;2023-04-29T09:58:33;14.30;99.90
30206;DHT22;17010;51.306;3.150;2023-04-29T10:01:03;14.20;99.90
30206;DHT22;17010;51.306;3.150;2023-04-29T10:03:34;14.40;99.90
30206;DHT22;17010;51.306;3.150;2023-04-29T10:06:03;14.40;99.90
30206;DHT22;17010;51.306;3.150;2023-04-29T10:08:32;14.50;99.90
30206;DHT22;17010;51.306;3.150;2023-04-29T10:10:59;14.70;99.90
30206;DHT22;17010;51.306;3.150;2023-04-29T10:13:27;14.90;99.90
30206;DHT22;17010;51.306;3.150;2023-04-29T10:18:41;15.00;99.90
30206;DHT22;17010;51.306;3.150;2023-04-29T10:21:09;15.20;99.90
30206;DHT22;17010;51.306;3.150;2023-04-29T10:23:36;15.20;99.90
30206;DHT22;17010;51.306;3.150;2023-04-29T10:26:05;14.90;99.90
30206;DHT22;17010;51.306;3.150;2023-04-29T10:28:32;15.00;99.90
30206;DHT22;17010;51.306;3.150;2023-04-29T10:31:01;15.30;99.90
30206;DHT22;17010;51.306;3.150;2023-04-29T10:33:31;15.50;99.90
30206;DHT22;17010;51.306;3.150;2023-04-29T10:36:05;15.70;99.90
30206;DHT22;17010;51.306;3.150;2023-04-29T10:39:00;16.00;99.90
30206;DHT22;17010;51.306;3.150;2023-04-29T10:41:50;16.10;99.90
30206;DHT22;17010;51.306;3.150;2023-04-29T10:44:17;15.80;99.90
30206;DHT22;17010;51.306;3.150;2023-04-29T10:46:44;15.80;99.90
30206;DHT22;17010;51.306;3.150;2023-04-29T10:49:10;16.00;99.90
30206;DHT22;17010;51.306;3.150;2023-04-29T10:51:45;16.10;99.90
30206;DHT22;17010;51.306;3.150;2023-04-29T10:54:15;16.30;99.90
30206;DHT22;17010;51.306;3.150;2023-04-29T10:56:51;16.40;99.90
30206;DHT22;17010;51.306;3.150;2023-04-29T11:01:58;15.70;99.90
30206;DHT22;17010;51.306;3.150;2023-04-29T11:04:25;15.60;99.90
30206;DHT22;17010;51.306;3.150;2023-04-29T11:06:55;15.80;99.90
30206;DHT22;17010;51.306;3.150;2023-04-29T11:12:07;15.80;99.90
30206;DHT22;17010;51.306;3.150;2023-04-29T11:14:48;15.80;99.90
30206;DHT22;17010;51.306;3.150;2023-04-29T11:17:15;15.50;99.90
30206;DHT22;17010;51.306;3.150;2023-04-29T11:20:00;15.30;99.90
30206;DHT22;17010;51.306;3.150;2023-04-29T11:22:27;15.30;99.90
30206;DHT22;17010;51.306;3.150;2023-04-29T11:25:00;15.40;99.90
30206;DHT22;17010;51.306;3.150;2023-04-29T11:27:35;15.30;99.90
30206;DHT22;17010;51.306;3.150;2023-04-29T11:30:02;15.20;99.90
30206;DHT22;17010;51.306;3.150;2023-04-29T11:32:37;15.10;99.90
30206;DHT22;17010;51.306;3.150;2023-04-29T11:35:13;14.80;99.90
30206;DHT22;17010;51.306;3.150;2023-04-29T11:37:42;14.70;99.90
30206;DHT22;17010;51.306;3.150;2023-04-29T11:40:10;15.00;99.90
30206;DHT22;17010;51.306;3.150;2023-04-29T11:42:46;14.80;99.90
30206;DHT22;17010;51.306;3.150;2023-04-29T11:45:13;14.70;99.90
30206;DHT22;17010;51.306;3.150;2023-04-29T11:47:42;15.00;99.90
30206;DHT22;17010;51.306;3.150;2023-04-29T11:50:11;14.90;99.90
30206;DHT22;17010;51.306;3.150;2023-04-29T11:52:38;14.90;99.90
30206;DHT22;17010;51.306;3.150;2023-04-29T11:55:09;15.10;99.90
30206;DHT22;17010;51.306;3.150;2023-04-29T11:57:37;15.30;99.90
30206;DHT22;17010;51.306;3.150;2023-04-29T12:00:24;15.30;99.90
30206;DHT22;17010;51.306;3.150;2023-04-29T12:02:50;15.10;99.90
30206;DHT22;17010;51.306;3.150;2023-04-29T12:05:16;15.10;99.90
30206;DHT22;17010;51.306;3.150;2023-04-29T12:07:43;15.10;99.90
30206;DHT22;17010;51.306;3.150;2023-04-29T12:10:10;15.10;99.90
30206;DHT22;17010;51.306;3.150;2023-04-29T12:12:41;14.90;99.90
30206;DHT22;17010;51.306;3.150;2023-04-29T12:15:10;15.00;99.90
30206;DHT22;17010;51.306;3.150;2023-04-29T12:17:37;15.00;99.90
30206;DHT22;17010;51.306;3.150;2023-04-29T12:20:04;15.00;99.90
30206;DHT22;17010;51.306;3.150;2023-04-29T12:22:31;15.10;99.90
30206;DHT22;17010;51.306;3.150;2023-04-29T12:24:58;14.80;99.90
30206;DHT22;17010;51.306;3.150;2023-04-29T12:27:26;14.80;99.90
30206;DHT22;17010;51.306;3.150;2023-04-29T12:29:52;14.80;99.90
30206;DHT22;17010;51.306;3.150;2023-04-29T12:32:22;14.80;99.90
30206;DHT22;17010;51.306;3.150;2023-04-29T12:34:50;14.70;99.90
30206;DHT22;17010;51.306;3.150;2023-04-29T12:37:21;14.40;99.90
30206;DHT22;17010;51.306;3.150;2023-04-29T12:39:49;14.20;99.90
30206;DHT22;17010;51.306;3.150;2023-04-29T12:42:17;14.30;99.90
30206;DHT22;17010;51.306;3.150;2023-04-29T12:44:47;14.30;99.90
30206;DHT22;17010;51.306;3.150;2023-04-29T12:47:13;14.40;99.90
30206;DHT22;17010;51.306;3.150;2023-04-29T12:49:43;14.40;99.90
30206;DHT22;17010;51.306;3.150;2023-04-29T12:52:11;14.70;99.90
30206;DHT22;17010;51.306;3.150;2023-04-29T12:54:38;14.60;99.90
30206;DHT22;17010;51.306;3.150;2023-04-29T12:57:09;14.40;99.90
30206;DHT22;17010;51.306;3.150;2023-04-29T12:59:36;14.40;99.90
30206;DHT22;17010;51.306;3.150;2023-04-29T13:02:02;14.60;99.90
30206;DHT22;17010;51.306;3.150;2023-04-29T13:04:29;14.60;99.90
30206;DHT22;17010;51.306;3.150;2023-04-29T13:06:55;14.60;99.90
30206;DHT22;17010;51.306;3.150;2023-04-29T13:09:25;14.50;99.90
30206;DHT22;17010;51.306;3.150;2023-04-29T13:11:52;14.20;99.90
30206;DHT22;17010;51.306;3.150;2023-04-29T13:14:18;14.00;99.90
30206;DHT22;17010;51.306;3.150;2023-04-29T13:16:44;13.90;99.90
30206;DHT22;17010;51.306;3.150;2023-04-29T13:19:11;13.80;99.90
30206;DHT22;17010;51.306;3.150;2023-04-29T13:21:37;14.00;99.90
30206;DHT22;17010;51.306;3.150;2023-04-29T13:24:04;14.00;99.90
30206;DHT22;17010;51.306;3.150;2023-04-29T13:26:32;14.00;99.90
30206;DHT22;17010;51.306;3.150;2023-04-29T13:28:59;13.90;99.90
30206;DHT22;17010;51.306;3.150;2023-04-29T13:31:25;14.00;99.90
30206;DHT22;17010;51.306;3.150;2023-04-29T13:33:54;14.00;99.90
30206;DHT22;17010;51.306;3.150;2023-04-29T13:36:21;13.90;99.90
30206;DHT22;17010;51.306;3.150;2023-04-29T13:38:47;13.90;99.90
30206;DHT22;17010;51.306;3.150;2023-04-29T13:41:13;13.60;99.90
30206;DHT22;17010;51.306;3.150;2023-04-29T13:43:40;13.70;99.90
30206;DHT22;17010;51.306;3.150;2023-04-29T13:46:07;13.70;99.90
30206;DHT22;17010;51.306;3.150;2023-04-29T13:48:34;13.60;99.90
30206;DHT22;17010;51.306;3.150;2023-04-29T13:51:00;13.60;99.90
30206;DHT22;17010;51.306;3.150;2023-04-29T13:53:26;13.60;99.90
30206;DHT22;17010;51.306;3.150;2023-04-29T13:55:54;13.40;99.90
30206;DHT22;17010;51.306;3.150;2023-04-29T13:58:22;13.40;99.90
30206;DHT22;17010;51.306;3.150;2023-04-29T14:00:49;13.30;99.90
30206;DHT22;17010;51.306;3.150;2023-04-29T14:03:15;13.40;99.90
30206;DHT22;17010;51.306;3.150;2023-04-29T14:05:44;13.40;99.90
30206;DHT22;17010;51.306;3.150;2023-04-29T14:08:10;13.40;99.90
30206;DHT22;17010;51.306;3.150;2023-04-29T14:10:37;13.30;99.90
30206;DHT22;17010;51.306;3.150;2023-04-29T14:13:05;13.10;99.90
30206;DHT22;17010;51.306;3.150;2023-04-29T14:15:31;13.10;99.90
30206;DHT22;17010;51.306;3.150;2023-04-29T14:17:57;13.10;99.90
30206;DHT22;17010;51.306;3.150;2023-04-29T14:20:24;13.20;99.90
30206;DHT22;17010;51.306;3.150;2023-04-29T14:22:51;13.20;99.90
30206;DHT22;17010;51.306;3.150;2023-04-29T14:25:17;13.10;99.90
30206;DHT22;17010;51.306;3.150;2023-04-29T14:27:45;13.10;99.90
30206;DHT22;17010;51.306;3.150;2023-04-29T14:30:15;12.90;99.90
30206;DHT22;17010;51.306;3.150;2023-04-29T14:32:41;12.80;99.90
30206;DHT22;17010;51.306;3.150;2023-04-29T14:35:08;12.70;99.90
30206;DHT22;17010;51.306;3.150;2023-04-29T14:37:35;12.80;99.90
30206;DHT22;17010;51.306;3.150;2023-04-29T14:40:01;12.80;99.90
30206;DHT22;17010;51.306;3.150;2023-04-29T14:42:27;12.80;99.90
30206;DHT22;17010;51.306;3.150;2023-04-29T14:44:53;12.80;99.90
30206;DHT22;17010;51.306;3.150;2023-04-29T14:47:19;12.80;99.90
30206;DHT22;17010;51.306;3.150;2023-04-29T14:49:46;12.90;99.90
30206;DHT22;17010;51.306;3.150;2023-04-29T14:52:12;12.90;99.90
30206;DHT22;17010;51.306;3.150;2023-04-29T14:54:38;12.80;99.90
30206;DHT22;17010;51.306;3.150;2023-04-29T14:57:04;12.60;99.90
30206;DHT22;17010;51.306;3.150;2023-04-29T14:59:31;12.60;99.90
30206;DHT22;17010;51.306;3.150;2023-04-29T15:01:58;12.40;99.90
30206;DHT22;17010;51.306;3.150;2023-04-29T15:04:24;12.20;99.90
30206;DHT22;17010;51.306;3.150;2023-04-29T15:06:52;12.20;99.90
30206;DHT22;17010;51.306;3.150;2023-04-29T15:09:18;12.30;99.90
30206;DHT22;17010;51.306;3.150;2023-04-29T15:11:44;12.20;99.90
30206;DHT22;17010;51.306;3.150;2023-04-29T15:14:10;12.10;99.90
30206;DHT22;17010;51.306;3.150;2023-04-29T15:16:38;12.20;99.90
30206;DHT22;17010;51.306;3.150;2023-04-29T15:19:04;12.20;99.90
30206;DHT22;17010;51.306;3.150;2023-04-29T15:21:32;12.10;99.90
30206;DHT22;17010;51.306;3.150;2023-04-29T15:23:59;12.10;99.90
30206;DHT22;17010;51.306;3.150;2023-04-29T15:26:25;12.10;99.90
30206;DHT22;17010;51.306;3.150;2023-04-29T15:28:52;12.10;99.90
30206;DHT22;17010;51.306;3.150;2023-04-29T15:31:18;12.10;99.90
30206;DHT22;17010;51.306;3.150;2023-04-29T15:33:44;12.10;99.90
30206;DHT22;17010;51.306;3.150;2023-04-29T15:36:12;12.10;99.90
30206;DHT22;17010;51.306;3.150;2023-04-29T15:38:45;12.10;99.90
30206;DHT22;17010;51.306;3.150;2023-04-29T15:41:11;12.00;99.90
30206;DHT22;17010;51.306;3.150;2023-04-29T15:43:43;12.00;99.90
30206;DHT22;17010;51.306;3.150;2023-04-29T15:46:09;12.00;99.90
30206;DHT22;17010;51.306;3.150;2023-04-29T15:48:39;12.10;99.90
30206;DHT22;17010;51.306;3.150;2023-04-29T15:51:07;12.10;99.90
30206;DHT22;17010;51.306;3.150;2023-04-29T15:53:43;12.10;99.90
30206;DHT22;17010;51.306;3.150;2023-04-29T15:56:12;12.10;99.90
30206;DHT22;17010;51.306;3.150;2023-04-29T15:58:39;12.00;99.90
30206;DHT22;17010;51.306;3.150;2023-04-29T16:01:11;12.00;99.90
30206;DHT22;17010;51.306;3.150;2023-04-29T16:03:40;12.00;99.90
30206;DHT22;17010;51.306;3.150;2023-04-29T16:06:19;12.00;99.90
30206;DHT22;17010;51.306;3.150;2023-04-29T16:08:47;12.10;99.90